createdAt,value
2023-04-29T00:04:01.084Z,17.77
2023-04-29T00:09:04.698Z,12.57
2023-04-29T00:14:07.736Z,20.73
2023-04-29T00:19:10.821Z,18.37
2023-04-29T00:24:14.260Z,13.70
2023-04-29T00:29:18.889Z,13.67
2023-04-29T00:34:21.946Z,15.13
2023-04-29T00:39:24.879Z,17.33
2023-04-29T00:44:27.946Z,16.07
2023-04-29T00:49:31.451Z,15.53
2023-04-29T00:54:39.080Z,17.37
2023-04-29T00:59:42.230Z,14.20
2023-04-29T01:04:45.280Z,15.80
2023-04-29T01:10:03.284Z,10.77
2023-04-29T01:15:24.271Z,12.83
2023-04-29T01:20:28.453Z,17.42
2023-04-29T01:25:31.611Z,12.10
2023-04-29T01:30:57.222Z,10.63
2023-04-29T01:36:39.886Z,13.70
2023-04-29T01:42:21.284Z,14.00
2023-04-29T01:47:25.422Z,14.93
2023-04-29T01:52:28.890Z,15.00
2023-04-29T01:57:31.963Z,16.73
2023-04-29T02:02:35.404Z,14.97
2023-04-29T02:07:38.722Z,20.10
2023-04-29T02:12:42.098Z,16.00
2023-04-29T02:17:45.000Z,12.57
2023-04-29T02:22:48.267Z,16.40
2023-04-29T02:27:51.705Z,13.80
2023-04-29T02:32:55.459Z,12.37
2023-04-29T02:37:58.468Z,12.67
2023-04-29T02:43:01.691Z,11.57
2023-04-29T02:48:08.069Z,11.57
2023-04-29T02:53:11.304Z,10.00
2023-04-29T02:58:14.289Z,10.43
2023-04-29T03:03:17.823Z,9.00
2023-04-29T03:08:21.034Z,9.13
2023-04-29T03:13:24.017Z,11.77
2023-04-29T03:18:27.165Z,10.37
2023-04-29T03:23:30.209Z,8.83
2023-04-29T03:28:33.401Z,11.73
2023-04-29T03:33:36.495Z,11.07
2023-04-29T03:38:39.520Z,7.70
2023-04-29T03:43:44.221Z,10.57
2023-04-29T03:48:47.816Z,9.07
2023-04-29T03:53:53.747Z,7.97
2023-04-29T03:58:56.717Z,8.20
2023-04-29T04:04:00.363Z,7.67
2023-04-29T04:09:03.588Z,10.43
2023-04-29T04:14:06.565Z,7.73
2023-04-29T04:19:10.029Z,15.23
2023-04-29T04:24:13.009Z,12.63
2023-04-29T04:29:15.879Z,10.60
2023-04-29T04:34:18.962Z,14.20
2023-04-29T04:39:22.070Z,9.77
2023-04-29T04:44:24.862Z,8.57
2023-04-29T04:49:27.968Z,8.80
2023-04-29T04:54:31.130Z,9.10
2023-04-29T04:59:34.459Z,9.70
2023-04-29T05:04:37.432Z,8.50
2023-04-29T05:09:40.429Z,10.30
2023-04-29T05:14:43.420Z,7.23
2023-04-29T05:19:46.776Z,7.87
2023-04-29T05:24:49.897Z,6.47
2023-04-29T05:29:53.419Z,8.07
2023-04-29T05:34:56.777Z,9.63
2023-04-29T05:39:59.711Z,6.40
2023-04-29T05:45:02.830Z,7.33
2023-04-29T05:50:07.212Z,12.23
2023-04-29T05:55:10.554Z,9.53
2023-04-29T06:00:13.896Z,7.47
2023-04-29T06:05:17.191Z,7.23
2023-04-29T06:10:20.540Z,7.60
2023-04-29T06:15:23.610Z,9.90
2023-04-29T06:20:26.788Z,15.50
2023-04-29T06:25:29.790Z,9.90
2023-04-29T06:30:32.891Z,9.20
2023-04-29T06:35:41.187Z,9.50
2023-04-29T06:40:44.326Z,15.20
2023-04-29T06:45:47.819Z,13.37
2023-04-29T06:50:56.371Z,12.00
2023-04-29T06:55:59.500Z,14.20
2023-04-29T07:01:04.232Z,11.20
2023-04-29T07:06:07.388Z,7.70
2023-04-29T07:11:10.602Z,7.57
2023-04-29T07:16:20.195Z,6.43
2023-04-29T07:21:23.030Z,11.07
2023-04-29T07:26:26.056Z,9.83
2023-04-29T07:31:29.943Z,8.70
2023-04-29T07:36:33.213Z,8.77
2023-04-29T07:41:36.249Z,8.57
2023-04-29T07:46:39.334Z,9.10
2023-04-29T07:51:44.083Z,9.03
2023-04-29T07:56:47.172Z,9.73
2023-04-29T08:01:50.225Z,7.30
2023-04-29T08:06:53.628Z,8.50
2023-04-29T08:11:56.611Z,11.30
2023-04-29T08:16:59.528Z,9.77
2023-04-29T08:22:04.390Z,7.23
2023-04-29T08:27:07.677Z,6.93
2023-04-29T08:32:10.719Z,8.73
2023-04-29T08:37:13.784Z,8.53
2023-04-29T08:42:25.593Z,8.53
2023-04-29T08:47:31.741Z,8.55
2023-04-29T08:52:36.031Z,9.52
2023-04-29T08:57:41.036Z,7.32
2023-04-29T09:02:50.610Z,9.27
2023-04-29T09:07:54.363Z,8.32
2023-04-29T09:13:00.753Z,9.70
2023-04-29T09:18:03.819Z,9.40
2023-04-29T09:23:06.905Z,10.00
2023-04-29T09:28:17.469Z,7.10
2023-04-29T09:33:20.777Z,6.22
2023-04-29T09:38:23.738Z,6.97
2023-04-29T09:43:26.943Z,6.97
2023-04-29T09:48:34.463Z,8.43
2023-04-29T09:53:38.980Z,8.60
2023-04-29T09:58:42.033Z,10.10
2023-04-29T10:03:46.339Z,10.27
2023-04-29T10:08:50.543Z,9.65
2023-04-29T10:13:53.436Z,8.73
2023-04-29T10:18:59.857Z,5.85
2023-04-29T10:24:04.162Z,6.85
2023-04-29T10:29:08.744Z,7.72
2023-04-29T10:34:14.051Z,8.75
2023-04-29T10:39:42.625Z,7.35
2023-04-29T10:45:28.768Z,8.38
2023-04-29T10:50:50.074Z,8.60
2023-04-29T10:56:19.583Z,6.05
2023-04-29T11:01:53.395Z,6.75
2023-04-29T11:06:59.127Z,8.65
2023-04-29T11:12:08.664Z,5.03
2023-04-29T11:17:16.086Z,6.23
2023-04-29T11:22:33.913Z,3.60
2023-04-29T11:27:42.765Z,13.43
2023-04-29T11:32:45.854Z,8.75
2023-04-29T11:37:49.579Z,5.53
2023-04-29T11:42:52.590Z,4.50
2023-04-29T11:47:56.172Z,5.53
2023-04-29T11:52:59.300Z,4.88
2023-04-29T11:58:05.137Z,7.65
2023-04-29T12:03:20.076Z,5.95
2023-04-29T12:08:28.824Z,5.95
2023-04-29T12:13:33.465Z,6.30
2023-04-29T12:18:36.662Z,5.30
2023-04-29T12:23:41.636Z,7.22
2023-04-29T12:28:44.802Z,6.57
2023-04-29T12:33:47.784Z,6.32
2023-04-29T12:38:50.942Z,5.78
2023-04-29T12:43:54.354Z,7.63
2023-04-29T12:48:57.361Z,8.43
2023-04-29T12:54:04.783Z,7.28
2023-04-29T12:59:12.290Z,5.22
2023-04-29T13:04:15.639Z,5.70
2023-04-29T13:09:19.230Z,5.22
2023-04-29T13:14:23.275Z,7.07
2023-04-29T13:19:43.438Z,5.43
2023-04-29T13:24:50.117Z,6.47
2023-04-29T13:29:53.542Z,5.65
2023-04-29T13:34:56.634Z,5.88
2023-04-29T13:39:59.635Z,5.13
2023-04-29T13:45:03.978Z,3.80
2023-04-29T14:00:47.114Z,5.93
2023-04-29T14:05:43.146Z,4.93
2023-04-29T14:10:46.312Z,4.50
2023-04-29T14:15:49.329Z,4.90
2023-04-29T14:20:52.427Z,4.72
2023-04-29T14:26:06.264Z,4.38
2023-04-29T14:31:18.945Z,4.25
2023-04-29T14:36:21.985Z,5.30
2023-04-29T14:41:25.665Z,6.35
2023-04-29T14:46:29.578Z,5.40
2023-04-29T14:51:32.642Z,3.15
2023-04-29T14:56:37.934Z,2.75
2023-04-29T15:01:40.907Z,6.95
2023-04-29T15:06:43.953Z,4.40
2023-04-29T15:11:46.900Z,3.20
2023-04-29T15:16:49.967Z,5.15
2023-04-29T15:21:53.173Z,3.08
2023-04-29T15:26:56.173Z,4.28
2023-04-29T15:31:59.253Z,5.10
2023-04-29T15:37:02.431Z,4.90
2023-04-29T15:42:05.980Z,4.90
2023-04-29T15:47:09.103Z,3.58
2023-04-29T15:52:12.325Z,7.70
2023-04-29T15:57:15.561Z,8.63
2023-04-29T16:02:20.523Z,5.60
2023-04-29T16:07:24.033Z,7.07
2023-04-29T16:12:27.107Z,3.90
2023-04-29T16:17:32.185Z,5.88
2023-04-29T16:22:35.180Z,6.53
2023-04-29T16:27:38.334Z,9.65
2023-04-29T16:32:43.857Z,7.60
2023-04-29T16:37:46.982Z,6.50
2023-04-29T16:42:50.083Z,8.93
2023-04-29T16:47:54.730Z,5.25
2023-04-29T16:52:57.852Z,7.90
2023-04-29T16:58:00.812Z,4.28
2023-04-29T17:03:04.428Z,6.13
2023-04-29T17:08:07.789Z,6.00
2023-04-29T17:13:11.093Z,4.63
2023-04-29T17:18:14.227Z,6.18
2023-04-29T17:23:17.005Z,4.85
2023-04-29T17:28:20.412Z,8.77
2023-04-29T17:33:23.355Z,8.77
2023-04-29T17:38:26.304Z,8.77
2023-04-29T17:43:32.472Z,16.25
2023-04-29T17:48:35.630Z,12.90
2023-04-29T17:53:38.661Z,12.82
2023-04-29T17:58:41.689Z,12.25
2023-04-29T18:03:47.113Z,8.52
2023-04-29T18:08:50.536Z,6.78
2023-04-29T18:13:54.537Z,6.35
2023-04-29T18:18:57.507Z,7.90
2023-04-29T18:24:00.854Z,8.63
2023-04-29T18:29:04.509Z,12.60
2023-04-29T18:34:07.517Z,10.57
2023-04-29T18:39:10.647Z,8.97
2023-04-29T18:44:14.853Z,11.93
2023-04-29T18:49:18.195Z,7.73
2023-04-29T18:54:21.146Z,9.97
2023-04-29T18:59:24.481Z,19.23
2023-04-29T19:04:27.357Z,15.53
2023-04-29T19:09:32.178Z,15.17
2023-04-29T19:14:35.293Z,11.60
2023-04-29T19:19:38.271Z,10.63
2023-04-29T19:24:42.194Z,8.87
2023-04-29T19:29:45.649Z,9.07
2023-04-29T19:34:49.061Z,7.90
2023-04-29T19:39:52.516Z,12.77
2023-04-29T19:44:56.390Z,12.63
2023-04-29T19:49:59.676Z,13.13
2023-04-29T19:55:02.812Z,9.23
2023-04-29T20:00:06.932Z,8.57
2023-04-29T20:05:13.815Z,9.97
2023-04-29T20:10:16.817Z,6.77
2023-04-29T20:15:19.890Z,7.07
2023-04-29T20:20:24.331Z,6.03
2023-04-29T20:25:28.521Z,7.90
2023-04-29T20:30:31.961Z,13.53
2023-04-29T20:35:34.776Z,9.03
2023-04-29T20:40:37.707Z,7.83
2023-04-29T20:45:41.462Z,7.67
2023-04-29T20:50:44.430Z,10.20
2023-04-29T20:55:47.244Z,8.20
2023-04-29T21:00:50.312Z,5.97
2023-04-29T21:05:54.918Z,8.27
2023-04-29T21:10:58.363Z,10.83
2023-04-29T21:16:01.375Z,6.90
2023-04-29T21:21:04.647Z,7.03
2023-04-29T21:26:07.765Z,9.20
2023-04-29T21:31:16.243Z,11.03
2023-04-29T21:36:19.609Z,10.27
2023-04-29T21:41:29.513Z,10.33
2023-04-29T21:46:33.541Z,11.27
2023-04-29T21:51:36.404Z,10.37
2023-04-29T21:56:39.384Z,9.70
2023-04-29T22:01:45.269Z,14.47
2023-04-29T22:06:49.038Z,6.50
2023-04-29T22:11:51.961Z,9.90
2023-04-29T22:16:55.005Z,8.27
2023-04-29T22:21:58.529Z,7.20
2023-04-29T22:27:01.834Z,12.20
2023-04-29T22:32:05.994Z,9.93
2023-04-29T22:37:09.017Z,11.57
2023-04-29T22:42:12.046Z,9.47
2023-04-29T22:47:15.217Z,9.23
2023-04-29T22:52:18.095Z,10.90
2023-04-29T22:57:21.128Z,6.17
2023-04-29T23:02:29.331Z,6.63
2023-04-29T23:07:32.775Z,8.50
2023-04-29T23:12:36.211Z,5.60
2023-04-29T23:17:39.961Z,6.53
2023-04-29T23:22:42.921Z,5.53
2023-04-29T23:27:45.824Z,10.27
2023-04-29T23:32:49.003Z,7.50
2023-04-29T23:37:52.104Z,10.10
2023-04-29T23:42:55.146Z,5.47
2023-04-29T23:47:58.099Z,7.30
2023-04-29T23:53:01.336Z,10.00
2023-04-29T23:58:04.324Z,8.93
